Time;durP1;ratioP1;P1;durP2;ratioP2;P2;SDS_P1;SDS_P2;PMS_P1;PMS_P2;Temp;Humidity;BMP_temperature;BMP_pressure;BME280_temperature;BME280_humidity;BME280_pressure;Samples;Min_cycle;Max_cycle;Signal;HPM_P1;HPM_P2
2020/12/23 00:00:10;;;;;;;;;;;;;;;13.06;47.81;101152.59;6037371;23;96726;-88
2020/12/23 00:02:36;;;;;;;;;;;;;;;13.20;47.88;101161.84;6034522;23;101187;-84
2020/12/23 00:05:04;;;;;;;;;;;;;;;13.45;47.44;101154.66;6031972;23;98056;-85
2020/12/23 00:07:30;;;;;;;;;;;;;;;13.07;47.42;101162.28;6031943;23;97054;-84
2020/12/23 00:09:56;;;;;;;;;;;;;;;13.52;46.57;101172.06;6036046;23;96954;-88
2020/12/23 00:12:26;;;;;;;;;;;;;;;13.72;46.60;101163.25;6045907;23;98366;-85
2020/12/23 00:14:52;;;;;;;;;;;;;;;13.61;46.82;101163.69;6043592;23;99863;-90
2020/12/23 00:17:19;;;;;;;;;;;;;;;13.76;46.81;101167.50;6044310;23;96730;-91
2020/12/23 00:19:45;;;;;;;;;;;;;;;13.54;47.11;101164.88;6045221;23;96842;-84
2020/12/23 00:22:10;;;;;;;;;;;;;;;13.60;46.53;101166.41;6050230;23;98077;-86
2020/12/23 00:24:36;;;;;;;;;;;;;;;13.71;46.12;101159.75;6047046;23;96910;-87
2020/12/23 00:27:02;;;;;;;;;;;;;;;13.53;46.47;101164.00;6043146;23;96620;-85
2020/12/23 00:29:29;;;;;;;;;;;;;;;12.98;48.05;101164.47;6040912;23;96919;-85
2020/12/23 00:31:54;;;;;;;;;;;;;;;12.56;48.55;101162.50;6041561;23;97891;-83
2020/12/23 00:34:21;;;;;;;;;;;;;;;12.40;49.62;101160.47;6037573;23;96959;-83
2020/12/23 00:36:51;;;;;;;;;;;;;;;13.27;47.32;101165.97;6038620;23;96685;-86
2020/12/23 00:39:17;;;;;;;;;;;;;;;13.50;47.05;101164.13;6034243;23;96731;-85
2020/12/23 00:41:43;;;;;;;;;;;;;;;13.44;47.22;101167.06;6032628;23;98232;-86
2020/12/23 00:44:09;;;;;;;;;;;;;;;13.35;47.08;101174.50;6033054;23;99367;-87
2020/12/23 00:46:35;;;;;;;;;;;;;;;12.76;48.37;101175.00;6035411;23;97056;-88
2020/12/23 00:49:02;;;;;;;;;;;;;;;13.13;48.02;101179.78;6035766;23;97032;-87
2020/12/23 00:51:28;;;;;;;;;;;;;;;13.32;47.73;101174.66;6039250;23;100793;-87
2020/12/23 00:53:54;;;;;;;;;;;;;;;13.44;47.30;101179.47;6037700;23;98040;-88
2020/12/23 00:56:26;;;;;;;;;;;;;;;13.44;47.39;101169.69;6043489;23;96942;-87
2020/12/23 00:58:52;;;;;;;;;;;;;;;13.34;47.55;101170.13;6042586;23;97076;-85
2020/12/23 01:01:18;;;;;;;;;;;;;;;13.16;47.50;101171.72;6048814;23;98190;-85
2020/12/23 01:03:46;;;;;;;;;;;;;;;13.44;46.93;101174.16;6052800;23;97731;-85
2020/12/23 01:06:12;;;;;;;;;;;;;;;13.15;46.36;101176.16;6055507;23;96334;-85
2020/12/23 01:08:38;;;;;;;;;;;;;;;13.34;46.89;101178.94;6051812;23;96510;-85
2020/12/23 01:11:05;;;;;;;;;;;;;;;12.99;46.97;101182.97;6047062;23;98218;-84
2020/12/23 01:13:30;;;;;;;;;;;;;;;12.96;48.18;101176.91;6037490;23;99345;-85
2020/12/23 01:15:57;;;;;;;;;;;;;;;13.25;47.63;101178.47;6035652;23;96675;-86
2020/12/23 01:18:23;;;;;;;;;;;;;;;13.28;47.59;101176.53;6033758;23;97076;-84
2020/12/23 01:20:50;;;;;;;;;;;;;;;13.21;47.19;101177.69;6034868;23;98104;-87
2020/12/23 01:23:15;;;;;;;;;;;;;;;13.48;46.69;101184.56;6034268;23;98849;-86
2020/12/23 01:25:41;;;;;;;;;;;;;;;13.20;47.72;101177.75;6032805;23;96839;-86
2020/12/23 01:28:07;;;;;;;;;;;;;;;13.35;47.19;101179.81;6032632;23;96882;-85
2020/12/23 01:30:33;;;;;;;;;;;;;;;13.13;47.52;101169.16;6033093;23;97801;-85
2020/12/23 01:32:59;;;;;;;;;;;;;;;13.23;46.58;101180.31;6035059;23;99307;-85
2020/12/23 01:35:24;;;;;;;;;;;;;;;13.37;46.53;101178.84;6036035;23;96957;-86
2020/12/23 01:37:51;;;;;;;;;;;;;;;13.33;46.73;101171.03;6036300;23;96732;-87
2020/12/23 01:40:18;;;;;;;;;;;;;;;13.26;46.14;101161.63;6034145;23;99097;-86
2020/12/23 01:42:44;;;;;;;;;;;;;;;13.42;45.80;101155.63;6033261;23;100673;-86
2020/12/23 01:45:10;;;;;;;;;;;;;;;13.40;46.08;101151.28;6033689;23;96612;-87
2020/12/23 01:47:36;;;;;;;;;;;;;;;13.07;46.99;101156.13;6035565;23;96899;-87
2020/12/23 01:50:02;;;;;;;;;;;;;;;13.32;47.36;101172.00;6034854;23;99797;-86
2020/12/23 01:52:28;;;;;;;;;;;;;;;13.44;47.33;101176.81;6033696;23;98925;-86
2020/12/23 01:54:55;;;;;;;;;;;;;;;13.44;46.59;101167.06;6035144;23;96809;-87
2020/12/23 01:57:22;;;;;;;;;;;;;;;13.27;46.80;101160.66;6035939;23;96831;-87
2020/12/23 01:59:48;;;;;;;;;;;;;;;13.35;47.37;101163.88;6045264;23;98950;-87
2020/12/23 02:02:29;;;;;;;;;;;;;;;13.43;47.22;101175.06;6053287;23;98192;-86
2020/12/23 02:04:57;;;;;;;;;;;;;;;13.14;48.16;101171.78;6052006;23;95974;-87
2020/12/23 02:07:23;;;;;;;;;;;;;;;13.18;48.46;101176.97;6053223;23;96441;-86
2020/12/23 02:09:50;;;;;;;;;;;;;;;13.14;48.59;101163.81;6055758;23;97908;-82
2020/12/23 02:12:17;;;;;;;;;;;;;;;13.29;48.24;101167.66;6055930;23;98459;-85
2020/12/23 02:14:43;;;;;;;;;;;;;;;13.13;47.87;101169.16;6055207;23;96556;-87
2020/12/23 02:17:09;;;;;;;;;;;;;;;13.13;48.47;101174.47;6055950;23;96457;-80
2020/12/23 02:19:49;;;;;;;;;;;;;;;13.17;48.06;101170.81;6056947;23;98872;-82
2020/12/23 02:22:15;;;;;;;;;;;;;;;12.99;49.53;101177.66;6051105;23;97750;-86
2020/12/23 02:24:42;;;;;;;;;;;;;;;12.94;48.10;101174.31;6044510;23;96618;-85
2020/12/23 02:27:08;;;;;;;;;;;;;;;12.86;47.75;101179.06;6042375;23;96818;-86
2020/12/23 02:29:34;;;;;;;;;;;;;;;12.89;47.42;101176.28;6042260;23;98293;-86
2020/12/23 02:31:59;;;;;;;;;;;;;;;13.11;44.93;101169.22;6035030;23;99140;-86
2020/12/23 02:34:25;;;;;;;;;;;;;;;12.91;47.09;101174.44;6033548;23;96597;-85
2020/12/23 02:36:51;;;;;;;;;;;;;;;12.95;47.84;101170.72;6033078;23;96826;-85
2020/12/23 02:39:17;;;;;;;;;;;;;;;12.99;47.74;101164.41;6034348;23;97873;-85
2020/12/23 02:41:43;;;;;;;;;;;;;;;13.21;45.68;101161.78;6031129;23;98198;-85
2020/12/23 02:44:09;;;;;;;;;;;;;;;13.09;46.43;101149.84;6035347;23;96526;-85
2020/12/23 02:46:35;;;;;;;;;;;;;;;13.21;45.65;101153.81;6032899;23;96952;-85
2020/12/23 02:49:01;;;;;;;;;;;;;;;13.14;46.38;101153.19;6032753;23;98974;-85
2020/12/23 02:51:26;;;;;;;;;;;;;;;13.05;48.11;101145.59;6031234;23;101674;-86
2020/12/23 02:53:52;;;;;;;;;;;;;;;13.10;48.75;101154.22;6031688;23;96743;-85
2020/12/23 02:56:18;;;;;;;;;;;;;;;13.02;49.34;101161.63;6032619;23;96741;-85
2020/12/23 02:58:44;;;;;;;;;;;;;;;13.19;48.83;101142.44;6033131;23;98506;-85
2020/12/23 03:01:10;;;;;;;;;;;;;;;12.93;49.09;101138.09;6033763;23;98212;-85
2020/12/23 03:03:36;;;;;;;;;;;;;;;12.89;49.72;101144.44;6034790;23;96672;-85
2020/12/23 03:06:02;;;;;;;;;;;;;;;13.09;49.09;101141.88;6037457;23;96986;-85
2020/12/23 03:08:28;;;;;;;;;;;;;;;13.34;47.83;101132.97;6035747;23;98249;-86
2020/12/23 03:10:53;;;;;;;;;;;;;;;13.38;47.04;101139.88;6034874;23;99539;-84
2020/12/23 03:13:19;;;;;;;;;;;;;;;13.10;47.00;101126.81;6036849;23;97111;-85
2020/12/23 03:15:46;;;;;;;;;;;;;;;13.40;47.27;101124.75;6037922;23;96901;-86
2020/12/23 03:18:12;;;;;;;;;;;;;;;13.35;48.76;101134.69;6040644;23;99009;-86
2020/12/23 03:20:38;;;;;;;;;;;;;;;13.13;49.30;101127.59;6039719;23;98906;-86
2020/12/23 03:23:04;;;;;;;;;;;;;;;12.86;50.25;101126.00;6036558;23;96718;-84
2020/12/23 03:25:29;;;;;;;;;;;;;;;13.11;49.29;101129.44;6036260;23;96667;-85
2020/12/23 03:27:55;;;;;;;;;;;;;;;13.07;49.07;101126.94;6035648;23;99350;-85
2020/12/23 03:30:21;;;;;;;;;;;;;;;13.28;47.98;101135.88;6034257;23;97703;-84
2020/12/23 03:32:48;;;;;;;;;;;;;;;13.22;48.37;101136.97;6034685;23;96673;-85
2020/12/23 03:35:13;;;;;;;;;;;;;;;13.31;48.91;101141.06;6035296;23;96841;-85
2020/12/23 03:37:39;;;;;;;;;;;;;;;13.25;49.24;101146.63;6035013;23;97832;-85
2020/12/23 03:40:05;;;;;;;;;;;;;;;12.91;49.71;101152.34;6033864;23;100981;-85
2020/12/23 03:42:31;;;;;;;;;;;;;;;13.28;48.44;101154.44;6011024;23;96799;-86
2020/12/23 03:44:57;;;;;;;;;;;;;;;13.00;48.25;101151.97;6012806;23;96696;-85
2020/12/23 03:47:23;;;;;;;;;;;;;;;13.06;48.95;101152.59;6039142;23;101347;-86
2020/12/23 03:49:50;;;;;;;;;;;;;;;12.74;49.59;101167.09;6036211;23;99808;-85
2020/12/23 03:52:15;;;;;;;;;;;;;;;12.90;48.33;101162.09;6041048;23;96688;-85
2020/12/23 03:54:41;;;;;;;;;;;;;;;12.73;48.70;101164.53;6033459;23;96725;-84
2020/12/23 03:57:07;;;;;;;;;;;;;;;12.83;48.07;101160.59;6035130;23;101271;-85
2020/12/23 03:59:33;;;;;;;;;;;;;;;12.58;48.61;101163.31;6034331;23;99381;-86
2020/12/23 04:01:59;;;;;;;;;;;;;;;12.13;50.03;101157.91;6033452;23;96763;-85
2020/12/23 04:04:24;;;;;;;;;;;;;;;11.91;51.41;101159.56;6034063;23;96898;-86
2020/12/23 04:06:51;;;;;;;;;;;;;;;12.47;49.80;101162.81;6035256;23;97823;-84
2020/12/23 04:09:17;;;;;;;;;;;;;;;12.67;49.50;101164.72;6035691;23;98836;-84
2020/12/23 04:11:43;;;;;;;;;;;;;;;13.07;48.65;101164.06;6042451;23;96697;-84
2020/12/23 04:14:08;;;;;;;;;;;;;;;13.31;48.02;101170.25;6052152;23;96644;-85
2020/12/23 04:16:34;;;;;;;;;;;;;;;13.31;48.60;101165.81;6039663;23;98122;-84
2020/12/23 04:19:00;;;;;;;;;;;;;;;13.24;48.45;101172.28;6035022;23;98239;-84
2020/12/23 04:21:27;;;;;;;;;;;;;;;13.54;47.66;101170.19;6033832;23;96709;-84
2020/12/23 04:23:54;;;;;;;;;;;;;;;13.42;47.90;101171.53;6033532;23;96786;-84
2020/12/23 04:26:20;;;;;;;;;;;;;;;13.31;48.35;101170.25;6033024;23;99028;-84
2020/12/23 04:28:45;;;;;;;;;;;;;;;13.33;47.82;101160.41;6033246;23;98051;-84
2020/12/23 04:31:11;;;;;;;;;;;;;;;13.42;48.11;101170.69;6033462;23;96752;-85
2020/12/23 04:33:37;;;;;;;;;;;;;;;13.38;48.03;101177.91;6033533;23;96911;-84
2020/12/23 04:36:03;;;;;;;;;;;;;;;13.13;49.06;101191.25;6036685;23;99303;-84
2020/12/23 04:38:28;;;;;;;;;;;;;;;13.04;49.60;101186.31;6034691;23;98112;-84
2020/12/23 04:40:55;;;;;;;;;;;;;;;13.21;49.12;101180.34;6044943;23;96518;-85
2020/12/23 04:43:21;;;;;;;;;;;;;;;12.88;50.30;101182.50;6047166;23;96676;-85
2020/12/23 04:45:47;;;;;;;;;;;;;;;13.12;49.74;101178.94;6037003;23;98209;-85
2020/12/23 04:48:13;;;;;;;;;;;;;;;13.46;49.10;101177.59;6034245;23;97714;-86
2020/12/23 04:50:42;;;;;;;;;;;;;;;13.48;48.57;101171.28;6010189;23;96716;-85
2020/12/23 04:53:07;;;;;;;;;;;;;;;13.11;49.84;101166.56;6046461;23;96682;-85
2020/12/23 04:55:33;;;;;;;;;;;;;;;13.32;49.13;101169.34;6045324;23;97790;-85
2020/12/23 04:58:00;;;;;;;;;;;;;;;13.47;48.72;101169.56;6032812;23;96900;-85
2020/12/23 05:00:26;;;;;;;;;;;;;;;13.27;49.20;101160.66;6033705;23;96700;-87
2020/12/23 05:02:52;;;;;;;;;;;;;;;13.33;49.41;101160.41;6034375;23;96914;-87
2020/12/23 05:05:18;;;;;;;;;;;;;;;13.29;49.61;101154.38;6043704;23;97715;-87
2020/12/23 05:07:46;;;;;;;;;;;;;;;13.12;50.37;101157.72;6049637;23;97716;-86
2020/12/23 05:10:12;;;;;;;;;;;;;;;12.85;51.04;101158.75;6053557;23;96618;-85
2020/12/23 05:12:38;;;;;;;;;;;;;;;13.03;50.70;101157.19;6056499;23;96374;-85
2020/12/23 05:15:05;;;;;;;;;;;;;;;13.21;49.96;101171.53;6055681;23;97792;-87
2020/12/23 05:17:31;;;;;;;;;;;;;;;13.20;50.18;101186.59;6055866;23;97759;-87
2020/12/23 05:19:57;;;;;;;;;;;;;;;12.98;50.88;101186.53;6056859;23;95853;-88
2020/12/23 05:22:22;;;;;;;;;;;;;;;13.07;50.47;101182.66;6056841;23;97277;-86
2020/12/23 05:24:51;;;;;;;;;;;;;;;12.94;51.19;101184.03;6057138;23;97854;-88
2020/12/23 05:27:17;;;;;;;;;;;;;;;13.15;50.81;101178.81;6039416;23;97715;-88
2020/12/23 05:29:45;;;;;;;;;;;;;;;13.18;50.87;101193.75;6034524;23;96728;-88
2020/12/23 05:32:12;;;;;;;;;;;;;;;13.36;50.19;101182.41;6034321;23;96782;-88
2020/12/23 05:34:37;;;;;;;;;;;;;;;13.51;49.89;101179.16;6034582;23;99051;-88
2020/12/23 05:37:03;;;;;;;;;;;;;;;13.55;49.81;101170.13;6034464;23;98877;-88
2020/12/23 05:39:30;;;;;;;;;;;;;;;13.36;50.05;101163.84;6035048;23;96713;-87
2020/12/23 05:41:55;;;;;;;;;;;;;;;13.20;50.61;101164.50;6034155;23;96739;-88
2020/12/23 05:44:21;;;;;;;;;;;;;;;13.39;49.92;101158.38;6039413;23;99147;-88
2020/12/23 05:46:48;;;;;;;;;;;;;;;13.25;50.70;101159.88;6031643;23;99111;-87
2020/12/23 05:49:15;;;;;;;;;;;;;;;13.23;51.04;101173.22;6032607;23;97096;-86
2020/12/23 05:51:42;;;;;;;;;;;;;;;13.23;50.66;101180.31;6033123;23;96814;-87
2020/12/23 05:54:08;;;;;;;;;;;;;;;13.41;50.50;101169.81;6031773;23;97812;-86
2020/12/23 05:56:37;;;;;;;;;;;;;;;13.31;50.30;101165.81;6032161;23;99263;-86
2020/12/23 05:59:03;;;;;;;;;;;;;;;13.15;51.04;101177.94;6036847;23;96722;-86
2020/12/23 06:01:32;;;;;;;;;;;;;;;13.18;50.92;101169.00;6051015;23;96588;-87
2020/12/23 06:04:02;;;;;;;;;;;;;;;13.09;51.46;101171.06;6050359;23;98049;-85
2020/12/23 06:06:30;;;;;;;;;;;;;;;13.03;51.54;101170.44;6051355;23;97971;-86
2020/12/23 06:08:56;;;;;;;;;;;;;;;12.96;52.19;101161.84;6038610;23;96776;-85
2020/12/23 06:11:27;;;;;;;;;;;;;;;12.87;52.16;101164.84;6035459;23;96816;-86
2020/12/23 06:14:12;;;;;;;;;;;;;;;12.78;52.55;101167.88;6034359;23;100169;-85
2020/12/23 06:16:38;;;;;;;;;;;;;;;12.90;52.29;101164.75;6027521;23;101002;-85
2020/12/23 06:19:05;;;;;;;;;;;;;;;12.86;52.58;101157.84;6038163;23;96716;-87
2020/12/23 06:21:32;;;;;;;;;;;;;;;12.91;52.01;101162.97;6041297;23;96735;-86
2020/12/23 06:24:02;;;;;;;;;;;;;;;12.87;52.04;101164.84;6041177;23;98219;-86
2020/12/23 06:26:29;;;;;;;;;;;;;;;12.80;52.26;101170.47;6043735;23;99242;-86
2020/12/23 06:28:57;;;;;;;;;;;;;;;12.81;52.47;101170.38;6042783;23;96630;-86
2020/12/23 06:31:24;;;;;;;;;;;;;;;12.94;52.38;101163.69;6041153;23;96904;-86
2020/12/23 06:33:50;;;;;;;;;;;;;;;12.78;52.67;101160.78;6044163;23;98127;-86
2020/12/23 06:36:16;;;;;;;;;;;;;;;12.94;52.36;101178.75;6050246;23;97698;-85
2020/12/23 06:38:43;;;;;;;;;;;;;;;13.01;52.28;101177.59;6054038;23;96504;-85
2020/12/23 06:41:09;;;;;;;;;;;;;;;13.11;51.78;101179.84;6055108;23;96589;-85
2020/12/23 06:43:54;;;;;;;;;;;;;;;13.16;51.71;101175.25;6054251;23;97859;-86
2020/12/23 06:46:20;;;;;;;;;;;;;;;13.26;51.62;101177.53;6051074;23;97027;-85
2020/12/23 06:48:45;;;;;;;;;;;;;;;13.08;51.89;101179.06;6050882;23;96605;-87
2020/12/23 06:51:33;;;;;;;;;;;;;;;13.23;51.46;101178.53;6040694;23;96800;-84
2020/12/23 06:54:00;;;;;;;;;;;;;;;13.19;51.34;101176.06;6043716;23;100850;-88
2020/12/23 06:56:41;;;;;;;;;;;;;;;13.02;51.84;101172.22;6043642;23;98482;-86
2020/12/23 06:59:07;;;;;;;;;;;;;;;12.75;52.14;101173.28;6039085;23;96684;-87
2020/12/23 07:01:36;;;;;;;;;;;;;;;12.79;52.30;101172.25;6037800;23;96843;-87
2020/12/23 07:04:02;;;;;;;;;;;;;;;13.00;51.63;101166.09;6043827;23;99362;-90
2020/12/23 07:06:31;;;;;;;;;;;;;;;12.96;51.95;101166.28;6045449;23;98080;-87
2020/12/23 07:09:01;;;;;;;;;;;;;;;13.11;51.59;101176.31;6042901;23;96599;-87
2020/12/23 07:11:32;;;;;;;;;;;;;;;13.02;52.04;101172.22;6038398;23;96774;-86
2020/12/23 07:13:58;;;;;;;;;;;;;;;13.00;52.50;101170.53;6044174;23;99336;-85
2020/12/23 07:16:24;;;;;;;;;;;;;;;12.92;52.46;101165.56;6037892;23;97972;-85
2020/12/23 07:18:54;;;;;;;;;;;;;;;12.84;52.90;101174.72;6039477;23;96732;-86
2020/12/23 07:21:24;;;;;;;;;;;;;;;13.06;52.38;101187.09;6041164;23;96831;-88
2020/12/23 07:23:53;;;;;;;;;;;;;;;12.96;52.64;101180.41;6036148;23;97667;-86
2020/12/23 07:26:21;;;;;;;;;;;;;;;12.99;52.41;101182.97;6042512;23;98891;-90
2020/12/23 07:28:48;;;;;;;;;;;;;;;13.05;52.56;101185.38;6038700;23;96651;-88
2020/12/23 07:31:14;;;;;;;;;;;;;;;12.99;52.21;101182.97;6038893;23;97359;-87
2020/12/23 07:33:40;;;;;;;;;;;;;;;13.01;52.34;101196.16;6040592;23;97773;-86
2020/12/23 07:36:10;;;;;;;;;;;;;;;13.01;52.25;101191.72;6039097;23;99538;-90
2020/12/23 07:38:40;;;;;;;;;;;;;;;12.98;52.85;101196.28;6040275;23;96690;-86
2020/12/23 07:41:11;;;;;;;;;;;;;;;12.94;52.69;101186.69;6038113;23;96695;-86
2020/12/23 07:43:37;;;;;;;;;;;;;;;12.89;52.66;101186.88;6037486;23;98895;-90
2020/12/23 07:46:03;;;;;;;;;;;;;;;12.93;52.88;101195.59;6012160;23;98099;-87
2020/12/23 07:48:30;;;;;;;;;;;;;;;13.00;52.76;101199.72;6010266;23;96742;-87
2020/12/23 07:50:58;;;;;;;;;;;;;;;12.76;52.80;101201.53;6038668;23;96668;-89
2020/12/23 07:53:24;;;;;;;;;;;;;;;12.97;52.37;101202.50;6047586;23;100116;-87
2020/12/23 07:55:52;;;;;;;;;;;;;;;12.64;52.45;101205.50;6054250;23;100182;-87
2020/12/23 07:58:18;;;;;;;;;;;;;;;12.84;52.04;101193.28;6052339;23;96670;-87
2020/12/23 08:00:45;;;;;;;;;;;;;;;12.58;52.45;101192.47;6048757;23;96597;-86
2020/12/23 08:03:11;;;;;;;;;;;;;;;12.39;52.79;101199.38;6050237;23;98097;-87
2020/12/23 08:05:38;;;;;;;;;;;;;;;12.60;52.22;101189.78;6053166;23;98301;-86
2020/12/23 08:08:06;;;;;;;;;;;;;;;12.91;51.57;101195.66;6052423;23;96354;-86
2020/12/23 08:10:32;;;;;;;;;;;;;;;12.96;51.22;101204.28;6054134;23;96552;-86
2020/12/23 08:13:00;;;;;;;;;;;;;;;12.82;51.21;101193.34;6054327;23;99423;-87
2020/12/23 08:15:27;;;;;;;;;;;;;;;12.95;51.08;101191.94;6054104;23;100440;-87
2020/12/23 08:18:02;;;;;;;;;;;;;;;13.08;51.01;101195.00;6055603;23;96148;-85
2020/12/23 08:20:28;;;;;;;;;;;;;;;12.99;50.84;101188.28;6051239;23;96754;-86
2020/12/23 08:22:54;;;;;;;;;;;;;;;13.01;51.10;101178.44;6043532;23;100815;-85
2020/12/23 08:25:22;;;;;;;;;;;;;;;12.90;50.75;101179.78;6043154;23;100154;-86
2020/12/23 08:27:54;;;;;;;;;;;;;;;13.12;50.81;101196.63;6048696;23;96594;-86
2020/12/23 08:30:21;;;;;;;;;;;;;;;13.15;50.22;101194.75;6040372;23;96663;-86
2020/12/23 08:32:52;;;;;;;;;;;;;;;13.22;50.10;101194.50;6038252;23;98912;-87
2020/12/23 08:35:20;;;;;;;;;;;;;;;13.12;50.78;101197.53;6039766;23;98311;-87
2020/12/23 08:37:46;;;;;;;;;;;;;;;12.95;50.69;101197.25;6037670;23;96663;-86
2020/12/23 08:40:14;;;;;;;;;;;;;;;13.03;50.51;101194.31;6036744;23;96715;-86
2020/12/23 08:42:49;;;;;;;;;;;;;;;12.89;50.68;101204.59;6036490;23;100006;-87
2020/12/23 08:45:20;;;;;;;;;;;;;;;12.95;50.59;101201.69;6037554;23;98189;-86
2020/12/23 08:47:47;;;;;;;;;;;;;;;13.04;50.84;101196.91;6039306;23;96768;-86
2020/12/23 08:50:13;;;;;;;;;;;;;;;13.15;50.68;101204.47;6040290;23;96893;-86
2020/12/23 08:52:45;;;;;;;;;;;;;;;13.15;50.27;101188.56;6039598;23;97962;-87
2020/12/23 08:55:13;;;;;;;;;;;;;;;13.33;49.87;101184.31;6038977;23;101192;-87
2020/12/23 08:57:39;;;;;;;;;;;;;;;13.30;49.92;101185.31;6037164;23;96630;-86
2020/12/23 09:00:05;;;;;;;;;;;;;;;13.36;49.61;101178.91;6038608;23;96802;-85
2020/12/23 09:02:35;;;;;;;;;;;;;;;13.34;49.57;101184.25;6036881;23;99360;-86
2020/12/23 09:05:17;;;;;;;;;;;;;;;13.42;49.47;101182.16;6036241;23;100198;-85
2020/12/23 09:07:44;;;;;;;;;;;;;;;13.44;49.55;101179.47;6037624;23;96922;-86
2020/12/23 09:10:11;;;;;;;;;;;;;;;13.55;49.36;101175.44;6038946;23;96954;-85
2020/12/23 09:12:37;;;;;;;;;;;;;;;13.58;49.39;101185.06;6042025;23;100628;-85
2020/12/23 09:15:11;;;;;;;;;;;;;;;13.41;49.56;101185.75;6040231;23;99469;-87
2020/12/23 09:17:38;;;;;;;;;;;;;;;13.22;50.21;101184.75;6041280;23;96714;-86
2020/12/23 09:20:06;;;;;;;;;;;;;;;13.23;50.06;101190.91;6038701;23;96796;-86
2020/12/23 09:22:33;;;;;;;;;;;;;;;13.56;49.73;101189.56;6038527;23;98391;-85
2020/12/23 09:25:20;;;;;;;;;;;;;;;13.55;49.63;101182.53;6043089;23;96707;-87
2020/12/23 09:27:47;;;;;;;;;;;;;;;13.33;50.10;101176.34;6043605;23;96671;-84
2020/12/23 09:30:14;;;;;;;;;;;;;;;13.45;50.09;101175.88;6043926;23;96873;-84
2020/12/23 09:32:50;;;;;;;;;;;;;;;13.62;49.72;101165.41;6043094;23;100359;-86
2020/12/23 09:35:17;;;;;;;;;;;;;;;13.66;49.39;101159.03;6040356;23;99330;-86
2020/12/23 09:37:49;;;;;;;;;;;;;;;13.74;49.73;101154.28;6039714;23;96574;-85
2020/12/23 09:40:37;;;;;;;;;;;;;;;13.85;49.32;101152.03;6042084;23;96585;-86
2020/12/23 09:43:08;;;;;;;;;;;;;;;13.65;49.90;101143.19;6042833;23;96642;-86
2020/12/23 09:45:34;;;;;;;;;;;;;;;13.82;49.58;101143.34;6048402;23;99101;-85
2020/12/23 09:48:00;;;;;;;;;;;;;;;13.50;50.39;101139.38;6054841;23;96453;-85
2020/12/23 09:50:34;;;;;;;;;;;;;;;13.40;50.93;101135.34;6048751;23;96877;-87
2020/12/23 09:53:00;;;;;;;;;;;;;;;13.43;51.09;101128.16;6042652;23;98366;-85
2020/12/23 09:55:26;;;;;;;;;;;;;;;13.87;50.30;101128.94;6042147;23;97231;-86
2020/12/23 09:57:52;;;;;;;;;;;;;;;13.79;50.21;101125.72;6041024;23;96618;-86
2020/12/23 10:00:20;;;;;;;;;;;;;;;13.75;50.17;101113.53;6042780;23;96920;-85
2020/12/23 10:02:46;;;;;;;;;;;;;;;13.84;49.78;101126.41;6040168;23;97920;-86
2020/12/23 10:05:12;;;;;;;;;;;;;;;13.79;50.07;101119.56;6042458;23;97741;-85
2020/12/23 10:07:37;;;;;;;;;;;;;;;13.75;50.33;101126.81;6043483;23;96774;-86
2020/12/23 10:10:03;;;;;;;;;;;;;;;13.44;51.14;101126.38;6043782;23;96670;-85
2020/12/23 10:12:29;;;;;;;;;;;;;;;13.76;50.28;101131.19;6042056;23;96835;-85
2020/12/23 10:14:55;;;;;;;;;;;;;;;13.55;50.70;101132.09;6041407;23;98000;-85
2020/12/23 10:17:23;;;;;;;;;;;;;;;13.60;50.82;101124.78;6042705;23;96541;-85
2020/12/23 10:19:49;;;;;;;;;;;;;;;13.37;51.40;101131.06;6042001;23;96681;-85
2020/12/23 10:22:15;;;;;;;;;;;;;;;13.01;52.13;101122.75;6042692;23;98203;-87
2020/12/23 10:24:41;;;;;;;;;;;;;;;13.18;52.02;101113.28;6042866;23;99184;-85
2020/12/23 10:27:08;;;;;;;;;;;;;;;12.99;52.65;101102.53;6012569;23;96769;-86
2020/12/23 10:29:33;;;;;;;;;;;;;;;13.08;52.53;101112.75;6039347;23;96802;-86
2020/12/23 10:31:59;;;;;;;;;;;;;;;13.12;52.32;101102.00;6040444;23;98110;-86
2020/12/23 10:37:27;;;;;;;;;;;;;;;13.48;51.52;101091.66;6041420;23;97028;-85
2020/12/23 10:39:56;;;;;;;;;;;;;;;13.69;50.83;101103.16;6045910;23;96717;-84
2020/12/23 10:42:22;;;;;;;;;;;;;;;13.68;50.78;101106.75;6024688;23;97237;-86
2020/12/23 10:44:48;;;;;;;;;;;;;;;13.41;51.52;101102.59;6044978;23;98918;-86
2020/12/23 10:47:14;;;;;;;;;;;;;;;13.37;51.68;101101.88;6051511;23;96526;-86
2020/12/23 10:49:42;;;;;;;;;;;;;;;13.19;51.97;101097.31;6052238;23;96736;-85
2020/12/23 10:52:09;;;;;;;;;;;;;;;13.21;52.13;101089.28;6055271;23;97859;-86
2020/12/23 10:54:35;;;;;;;;;;;;;;;13.31;51.95;101077.38;6054511;23;97790;-85
2020/12/23 10:57:01;;;;;;;;;;;;;;;13.45;51.63;101075.00;6054999;23;96532;-86
2020/12/23 10:59:29;;;;;;;;;;;;;;;13.49;51.54;101071.28;6052618;23;96810;-86
2020/12/23 11:01:55;;;;;;;;;;;;;;;13.02;53.10;101070.56;6052591;23;99924;-86
2020/12/23 11:04:21;;;;;;;;;;;;;;;13.04;53.68;101064.28;6052939;23;99540;-86
2020/12/23 11:06:49;;;;;;;;;;;;;;;13.14;53.32;101059.47;6049893;23;96555;-85
2020/12/23 11:09:15;;;;;;;;;;;;;;;13.46;52.76;101051.03;6051873;23;96622;-85
2020/12/23 11:11:41;;;;;;;;;;;;;;;13.45;52.86;101054.63;6050964;23;100549;-86
2020/12/23 11:14:09;;;;;;;;;;;;;;;13.24;53.33;101049.34;6054779;23;99131;-86
2020/12/23 11:16:50;;;;;;;;;;;;;;;13.42;52.95;101049.44;6055878;23;96719;-84
2020/12/23 11:19:16;;;;;;;;;;;;;;;13.37;53.20;101047.91;6056037;23;95919;-86
2020/12/23 11:21:42;;;;;;;;;;;;;;;13.21;53.57;101044.16;6054500;23;98326;-86
2020/12/23 11:24:09;;;;;;;;;;;;;;;13.49;52.85;101034.97;6040581;23;98059;-87
2020/12/23 11:26:35;;;;;;;;;;;;;;;13.41;53.22;101020.31;6042017;23;96735;-87
2020/12/23 11:29:02;;;;;;;;;;;;;;;13.33;53.15;101006.47;6041910;23;96714;-86
2020/12/23 11:31:27;;;;;;;;;;;;;;;13.62;52.54;101003.44;6040167;23;99177;-85
2020/12/23 11:33:53;;;;;;;;;;;;;;;13.48;52.89;101003.19;6038596;23;100626;-87
2020/12/23 11:36:21;;;;;;;;;;;;;;;13.70;52.59;101011.09;6040885;23;96518;-86
2020/12/23 11:38:47;;;;;;;;;;;;;;;13.30;53.73;101007.50;6055200;23;96457;-86
2020/12/23 11:41:14;;;;;;;;;;;;;;;13.40;53.45;101000.84;6055854;23;96676;-85
2020/12/23 11:43:40;;;;;;;;;;;;;;;13.28;53.62;101003.16;6045801;23;97206;-86
2020/12/23 11:46:06;;;;;;;;;;;;;;;13.55;52.88;101000.19;6049675;23;96637;-87
2020/12/23 11:48:32;;;;;;;;;;;;;;;13.60;52.76;101007.09;6043496;23;96791;-86
2020/12/23 11:50:58;;;;;;;;;;;;;;;13.02;54.07;100994.50;6043717;23;98437;-86
2020/12/23 11:53:25;;;;;;;;;;;;;;;13.03;54.18;101000.66;6044276;23;97264;-86
2020/12/23 11:55:51;;;;;;;;;;;;;;;12.92;54.50;100997.59;6036438;23;97196;-86
2020/12/23 11:58:19;;;;;;;;;;;;;;;13.27;53.62;100996.13;6035617;23;96918;-86
2020/12/23 12:00:45;;;;;;;;;;;;;;;12.95;54.37;100993.00;6038101;23;99573;-86
2020/12/23 12:03:10;;;;;;;;;;;;;;;13.10;54.07;100983.56;6048917;23;97810;-86
2020/12/23 12:05:36;;;;;;;;;;;;;;;12.90;54.37;100979.09;6051921;23;96515;-86
2020/12/23 12:11:11;;;;;;;;;;;;;;;13.20;53.98;100970.78;6045253;23;98490;-83
2020/12/23 12:13:46;;;;;;;;;;;;;;;13.13;54.04;100976.34;6057155;23;96407;-83
2020/12/23 12:16:13;;;;;;;;;;;;;;;13.21;53.66;100959.25;6056939;23;96495;-85
2020/12/23 12:18:52;;;;;;;;;;;;;;;13.28;53.60;100956.28;6032974;23;96678;-85
2020/12/23 12:21:18;;;;;;;;;;;;;;;13.27;53.92;100958.97;6053650;23;97263;-85
2020/12/23 12:23:44;;;;;;;;;;;;;;;12.90;54.75;100964.97;6042885;23;98990;-85
2020/12/23 12:26:10;;;;;;;;;;;;;;;13.22;53.92;100967.16;6041216;23;97011;-86
2020/12/23 12:28:38;;;;;;;;;;;;;;;13.30;53.74;100961.50;6039057;23;96700;-87
2020/12/23 12:31:09;;;;;;;;;;;;;;;13.20;54.18;100963.69;6036929;23;101187;-87
2020/12/23 12:33:35;;;;;;;;;;;;;;;13.21;54.21;100964.56;6040112;23;98977;-86
2020/12/23 12:36:02;;;;;;;;;;;;;;;13.26;54.07;100957.28;6045835;23;96531;-88
2020/12/23 12:38:29;;;;;;;;;;;;;;;13.47;53.52;100951.00;6044256;23;96721;-86
2020/12/23 12:40:55;;;;;;;;;;;;;;;13.47;53.48;100940.41;6030132;23;97674;-86